Time;durP1;ratioP1;P1;durP2;ratioP2;P2;SDS_P1;SDS_P2;PMS_P1;PMS_P2;Temp;Humidity;BMP_temperature;BMP_pressure;BME280_temperature;BME280_humidity;BME280_pressure;Samples;Min_cycle;Max_cycle;Signal;HPM_P1;HPM_P2
2022/11/23 00:02:13;;;;;;;0.77;0.77;;;;;;;2.63;88.28;99568.41;5064944;28;20020;-69
2022/11/23 00:04:38;;;;;;;0.73;0.73;;;;;;;2.60;88.54;99568.38;5064745;28;20049;-69
2022/11/23 00:07:04;;;;;;;2.67;2.55;;;;;;;2.56;88.84;99566.59;5064984;28;20021;-69
2022/11/23 00:09:29;;;;;;;0.50;0.50;;;;;;;2.58;88.91;99570.06;5063490;28;20040;-68
2022/11/23 00:11:54;;;;;;;0.75;0.75;;;;;;;2.62;88.41;99571.78;5064803;28;20032;-68
2022/11/23 00:14:19;;;;;;;0.50;0.50;;;;;;;2.56;89.04;99559.78;5064732;28;20024;-68
2022/11/23 00:16:45;;;;;;;0.90;0.90;;;;;;;2.58;88.76;99568.34;5063477;28;20122;-68
2022/11/23 00:19:10;;;;;;;0.70;0.70;;;;;;;2.62;89.21;99570.97;5064744;28;20033;-67
2022/11/23 00:21:36;;;;;;;0.70;0.70;;;;;;;2.58;89.42;99563.25;5064454;28;20125;-68
2022/11/23 00:24:01;;;;;;;2.45;2.35;;;;;;;2.64;89.32;99548.75;5064894;28;20036;-68
2022/11/23 00:26:27;;;;;;;0.65;0.65;;;;;;;2.72;88.72;99560.81;5063981;28;20040;-68
2022/11/23 00:28:52;;;;;;;2.40;2.30;;;;;;;2.64;88.79;99554.75;5064504;28;20098;-69
2022/11/23 00:31:19;;;;;;;0.73;0.73;;;;;;;2.68;88.85;99553.94;5062988;28;20033;-69
2022/11/23 00:33:49;;;;;;;0.60;0.60;;;;;;;2.72;88.88;99565.06;5063209;28;20059;-69
2022/11/23 00:36:16;;;;;;;1.10;1.10;;;;;;;2.70;88.97;99562.50;5064434;28;20025;-69
2022/11/23 00:38:42;;;;;;;2.05;1.95;;;;;;;2.74;88.80;99563.38;5064546;28;20040;-70
2022/11/23 00:41:10;;;;;;;0.98;0.98;;;;;;;2.93;86.99;99567.00;5064572;28;20083;-70
2022/11/23 00:43:36;;;;;;;2.33;1.52;;;;;;;2.86;87.65;99565.19;5064484;28;20047;-69
2022/11/23 00:46:17;;;;;;;0.65;0.65;;;;;;;2.70;88.73;99557.38;5064481;28;20477;-69
2022/11/23 00:48:43;;;;;;;1.23;1.23;;;;;;;2.71;89.25;99569.34;5063400;28;20028;-68
2022/11/23 00:51:11;;;;;;;0.60;0.60;;;;;;;2.77;89.01;99559.97;5064546;28;20029;-69
2022/11/23 00:53:37;;;;;;;0.75;0.75;;;;;;;2.78;88.96;99557.44;5064522;28;20025;-69
2022/11/23 00:56:03;;;;;;;3.17;3.05;;;;;;;2.79;89.05;99551.47;5063038;28;20050;-72
2022/11/23 00:58:29;;;;;;;0.63;0.63;;;;;;;2.94;87.96;99552.47;5046256;28;20025;-70
2022/11/23 01:01:08;;;;;;;2.45;2.35;;;;;;;2.82;88.48;99545.50;5064124;28;20028;-71
2022/11/23 01:03:34;;;;;;;0.85;0.85;;;;;;;2.95;87.64;99555.06;5064586;28;20025;-70
2022/11/23 01:06:11;;;;;;;0.85;0.85;;;;;;;2.91;87.90;99558.41;5064321;28;20104;-72
2022/11/23 01:08:38;;;;;;;0.82;0.82;;;;;;;3.01;87.27;99556.78;5064368;28;20476;-72
2022/11/23 01:11:09;;;;;;;1.80;1.70;;;;;;;3.00;87.19;99560.22;5062868;28;20029;-74
2022/11/23 01:13:36;;;;;;;21.77;4.88;;;;;;;2.94;87.69;99555.03;5064645;28;20029;-72
2022/11/23 01:16:02;;;;;;;0.65;0.65;;;;;;;2.84;88.18;99554.94;5062783;28;20043;-74
2022/11/23 01:18:27;;;;;;;1.52;1.48;;;;;;;2.95;87.92;99565.31;5064349;28;20045;-72
2022/11/23 01:20:53;;;;;;;1.20;1.08;;;;;;;3.09;86.54;99568.00;5063877;28;20048;-73
2022/11/23 01:23:18;;;;;;;0.70;0.70;;;;;;;2.92;87.82;99575.53;5064021;28;20029;-73
2022/11/23 01:25:44;;;;;;;0.50;0.50;;;;;;;2.90;88.59;99582.34;5064049;28;20132;-72
2022/11/23 01:28:09;;;;;;;0.50;0.50;;;;;;;2.88;88.99;99575.47;5064152;28;20032;-72
2022/11/23 01:30:35;;;;;;;0.60;0.60;;;;;;;2.93;88.93;99586.63;5063818;28;20047;-72
2022/11/23 01:33:01;;;;;;;1.42;1.33;;;;;;;2.96;88.52;99579.84;5064112;28;20048;-73
2022/11/23 01:35:27;;;;;;;0.65;0.65;;;;;;;2.92;88.77;99578.09;5062626;28;20031;-73
2022/11/23 01:37:52;;;;;;;0.55;0.55;;;;;;;2.98;88.55;99579.84;5063031;28;20381;-73
2022/11/23 01:40:18;;;;;;;0.50;0.50;;;;;;;2.95;88.55;99574.69;5067610;28;20056;-74
2022/11/23 01:42:59;;;;;;;2.55;2.45;;;;;;;2.94;89.01;99573.00;5067631;28;20069;-73
2022/11/23 01:45:41;;;;;;;0.52;0.52;;;;;;;3.02;88.91;99583.31;5067578;28;20025;-73
2022/11/23 01:48:18;;;;;;;0.60;0.60;;;;;;;2.99;88.71;99581.56;5067561;28;20029;-74
2022/11/23 01:50:47;;;;;;;0.50;0.50;;;;;;;3.00;88.49;99583.31;5067313;28;20074;-75
2022/11/23 01:53:14;;;;;;;2.25;2.15;;;;;;;3.01;88.65;99584.13;5065695;28;20017;-74
2022/11/23 01:55:41;;;;;;;0.50;0.50;;;;;;;2.99;89.03;99583.28;5066173;28;20025;-74
2022/11/23 01:58:09;;;;;;;1.38;1.35;;;;;;;3.08;88.16;99567.97;5067346;28;20021;-74
2022/11/23 02:00:35;;;;;;;0.60;0.60;;;;;;;3.00;88.26;99556.78;5067186;28;20027;-74
2022/11/23 02:03:04;;;;;;;0.50;0.50;;;;;;;3.05;87.99;99561.09;5067499;28;20024;-74
2022/11/23 02:05:43;;;;;;;1.52;1.50;;;;;;;2.95;88.04;99549.94;5067740;28;20021;-75
2022/11/23 02:08:10;;;;;;;0.50;0.50;;;;;;;3.01;87.98;99543.09;5065617;28;20036;-77
2022/11/23 02:10:35;;;;;;;1.20;1.20;;;;;;;3.06;87.18;99544.00;5067086;28;20024;-76
2022/11/23 02:13:03;;;;;;;0.70;0.70;;;;;;;3.01;87.64;99543.97;5067081;28;20044;-78
2022/11/23 02:15:29;;;;;;;0.50;0.50;;;;;;;3.19;86.32;99544.97;5049053;28;20028;-79
2022/11/23 02:17:55;;;;;;;0.90;0.90;;;;;;;3.11;86.40;99544.91;5067300;28;20093;-78
2022/11/23 02:20:21;;;;;;;0.73;0.73;;;;;;;2.92;87.37;99529.38;5067004;28;20048;-82
2022/11/23 02:23:05;;;;;;;0.50;0.50;;;;;;;2.97;87.86;99532.00;5067254;28;20020;-81
2022/11/23 02:25:42;;;;;;;0.50;0.50;;;;;;;3.00;87.50;99538.84;5067012;28;20082;-82
2022/11/23 02:28:20;;;;;;;0.65;0.65;;;;;;;3.05;87.03;99529.47;5067124;28;20017;-82
2022/11/23 02:30:48;;;;;;;0.40;0.40;;;;;;;3.09;87.34;99536.34;5066845;28;20025;-81
2022/11/23 02:33:14;;;;;;;0.80;0.80;;;;;;;3.06;86.94;99537.19;5066810;28;20033;-81
2022/11/23 02:35:48;;;;;;;3.78;2.17;;;;;;;2.99;87.64;99532.00;5066482;28;20378;-78
2022/11/23 02:38:13;;;;;;;0.60;0.60;;;;;;;3.09;87.24;99533.78;5066892;28;20049;-82
2022/11/23 02:40:39;;;;;;;0.60;0.60;;;;;;;3.18;86.31;99541.53;5065851;28;20400;-82
2022/11/23 02:43:04;;;;;;;0.80;0.80;;;;;;;3.09;86.78;99546.59;5066256;28;20244;-83
2022/11/23 02:45:37;;;;;;;0.60;0.60;;;;;;;3.28;85.65;99537.34;5072637;28;20352;-80
2022/11/23 02:48:03;;;;;;;1.05;1.05;;;;;;;3.20;86.15;99547.56;5065215;28;20104;-78
2022/11/23 02:50:28;;;;;;;0.50;0.50;;;;;;;3.08;86.70;99532.91;5047520;28;20025;-77
2022/11/23 02:52:54;;;;;;;0.50;0.50;;;;;;;3.07;87.15;99525.22;5066250;28;20055;-80
2022/11/23 02:55:19;;;;;;;0.60;0.60;;;;;;;3.07;86.82;99530.34;5064681;28;20017;-78
2022/11/23 02:57:44;;;;;;;0.60;0.60;;;;;;;3.07;87.29;99513.25;5064875;28;20144;-79
2022/11/23 03:00:11;;;;;;;0.73;0.73;;;;;;;3.27;86.09;99522.81;5066019;28;20047;-76
2022/11/23 03:02:37;;;;;;;0.50;0.50;;;;;;;3.21;86.35;99536.44;5066020;28;20017;-77
2022/11/23 03:05:02;;;;;;;0.88;0.88;;;;;;;3.37;85.09;99528.00;5066155;28;20441;-78
2022/11/23 03:07:27;;;;;;;0.60;0.60;;;;;;;3.27;85.48;99529.63;5064505;28;20025;-75
2022/11/23 03:09:53;;;;;;;0.47;0.47;;;;;;;3.21;85.93;99549.25;5064521;28;20056;-76
2022/11/23 03:12:18;;;;;;;0.80;0.80;;;;;;;3.43;84.52;99522.91;5066169;28;20017;-81
2022/11/23 03:14:43;;;;;;;0.80;0.80;;;;;;;3.27;84.93;99514.25;5064267;28;20032;-76
2022/11/23 03:17:09;;;;;;;0.50;0.50;;;;;;;3.23;85.09;99513.34;5066131;28;20025;-76
2022/11/23 03:19:34;;;;;;;1.70;1.65;;;;;;;3.18;85.56;99520.19;5063897;28;20056;-75
2022/11/23 03:21:59;;;;;;;2.08;1.98;;;;;;;3.22;85.50;99519.34;5065511;28;20017;-76
2022/11/23 03:24:25;;;;;;;0.68;0.68;;;;;;;3.15;86.06;99538.97;5064424;28;20090;-74
2022/11/23 03:26:50;;;;;;;0.50;0.50;;;;;;;3.22;85.64;99530.47;5065574;28;20025;-75
2022/11/23 03:29:15;;;;;;;9.15;2.15;;;;;;;3.20;85.94;99534.72;5065761;28;20064;-74
2022/11/23 03:31:41;;;;;;;0.50;0.50;;;;;;;3.15;86.77;99518.44;5065353;28;20035;-74
2022/11/23 03:34:08;;;;;;;0.60;0.60;;;;;;;3.24;86.48;99539.88;5064142;28;20053;-75
2022/11/23 03:36:34;;;;;;;0.60;0.60;;;;;;;3.25;86.15;99531.31;5065507;28;20047;-75
2022/11/23 03:38:59;;;;;;;0.60;0.60;;;;;;;3.18;87.01;99541.53;5064038;28;20044;-75
2022/11/23 03:41:24;;;;;;;0.90;0.88;;;;;;;3.21;86.92;99539.00;5065389;28;20496;-74
2022/11/23 03:43:50;;;;;;;2.55;2.45;;;;;;;3.25;86.41;99526.19;5063966;28;20070;-74
2022/11/23 03:46:15;;;;;;;0.95;0.93;;;;;;;3.50;84.56;99526.38;5065269;28;20033;-76
2022/11/23 03:48:40;;;;;;;0.52;0.52;;;;;;;3.37;84.67;99521.16;5065396;28;20080;-75
2022/11/23 03:51:05;;;;;;;0.60;0.60;;;;;;;3.37;85.12;99525.44;5065195;28;20104;-76
2022/11/23 03:53:31;;;;;;;0.50;0.50;;;;;;;3.22;85.57;99511.66;5065081;28;20032;-76
2022/11/23 03:55:57;;;;;;;0.60;0.60;;;;;;;3.35;85.51;99531.41;5064982;28;20024;-76
2022/11/23 03:58:22;;;;;;;2.05;1.95;;;;;;;3.40;85.14;99520.31;5064118;28;20440;-76
2022/11/23 04:00:47;;;;;;;0.50;0.50;;;;;;;3.42;84.49;99526.34;5064856;28;20017;-77
2022/11/23 04:03:13;;;;;;;0.90;0.90;;;;;;;3.61;83.20;99519.59;5065208;28;20033;-77
2022/11/23 04:05:38;;;;;;;0.70;0.70;;;;;;;3.60;82.48;99523.00;5064743;28;20033;-77
2022/11/23 04:08:04;;;;;;;0.50;0.50;;;;;;;3.29;84.43;99523.66;5063869;28;20051;-78
2022/11/23 04:10:29;;;;;;;2.00;1.92;;;;;;;3.21;85.10;99546.69;5066374;28;20020;-77
2022/11/23 04:12:55;;;;;;;1.95;1.85;;;;;;;3.17;85.14;99555.22;5065222;28;20059;-75
2022/11/23 04:15:20;;;;;;;0.50;0.50;;;;;;;3.01;85.76;99514.91;5064552;28;20033;-77
2022/11/23 04:17:46;;;;;;;0.43;0.43;;;;;;;3.24;84.98;99535.63;5065117;28;20071;-76
2022/11/23 04:20:11;;;;;;;0.60;0.60;;;;;;;2.92;86.62;99529.38;5064613;28;20558;-75
2022/11/23 04:22:37;;;;;;;0.50;0.50;;;;;;;2.88;87.11;99524.19;5064697;28;20099;-79
2022/11/23 04:25:02;;;;;;;0.50;0.50;;;;;;;2.91;86.90;99527.66;5063349;28;20021;-76
2022/11/23 04:27:27;;;;;;;1.42;1.42;;;;;;;2.82;87.94;99532.69;5064718;28;20070;-78
2022/11/23 04:29:53;;;;;;;0.52;0.52;;;;;;;2.99;86.72;99532.00;5064624;28;20496;-78
2022/11/23 04:32:18;;;;;;;0.50;0.50;;;;;;;2.77;87.96;99518.97;5063353;28;20025;-77
2022/11/23 04:34:43;;;;;;;0.50;0.50;;;;;;;2.74;88.60;99532.63;5063352;28;20028;-76
2022/11/23 04:37:09;;;;;;;1.02;1.02;;;;;;;2.74;88.60;99524.94;5064630;28;20432;-76
2022/11/23 04:39:34;;;;;;;0.88;0.88;;;;;;;2.65;89.68;99533.38;5064676;28;20017;-77
2022/11/23 04:41:59;;;;;;;0.50;0.50;;;;;;;2.78;89.02;99533.53;5064924;28;20100;-77
2022/11/23 04:44:25;;;;;;;0.75;0.75;;;;;;;2.87;88.76;99525.91;5064626;28;20028;-78
2022/11/23 04:46:51;;;;;;;1.73;1.70;;;;;;;2.77;89.03;99534.34;5064457;28;20162;-77
2022/11/23 04:49:16;;;;;;;1.08;1.08;;;;;;;2.73;89.42;99534.31;5064742;28;20021;-77
2022/11/23 04:51:42;;;;;;;0.68;0.68;;;;;;;2.91;88.70;99530.22;5064490;28;20032;-78
2022/11/23 04:54:08;;;;;;;0.88;0.88;;;;;;;2.75;89.39;99516.41;5063266;28;20084;-79
2022/11/23 04:56:33;;;;;;;1.27;1.23;;;;;;;2.72;90.01;99524.94;5064444;28;20081;-77
2022/11/23 04:58:58;;;;;;;0.50;0.50;;;;;;;2.76;90.07;99517.25;5064457;28;20357;-76
2022/11/23 05:01:24;;;;;;;0.75;0.75;;;;;;;2.78;90.17;99518.16;5062811;28;20025;-76
2022/11/23 05:03:49;;;;;;;0.55;0.55;;;;;;;2.75;90.27;99520.69;5063167;28;20028;-76
2022/11/23 05:06:14;;;;;;;0.50;0.50;;;;;;;2.79;90.24;99522.41;5064209;28;20025;-69
2022/11/23 05:08:41;;;;;;;1.20;1.20;;;;;;;2.77;90.40;99513.84;5064265;28;20116;-75
2022/11/23 05:11:06;;;;;;;0.60;0.60;;;;;;;2.78;90.86;99523.28;5062996;28;20029;-75
2022/11/23 05:13:31;;;;;;;0.52;0.52;;;;;;;2.76;91.09;99528.38;5064604;28;20037;-75
2022/11/23 05:15:57;;;;;;;0.50;0.50;;;;;;;2.79;90.97;99514.72;5068127;28;20480;-75
2022/11/23 05:18:22;;;;;;;3.28;1.10;;;;;;;2.91;90.54;99521.66;5068319;28;20032;-75
2022/11/23 05:20:47;;;;;;;1.40;1.35;;;;;;;2.87;90.67;99512.22;5067994;28;20511;-77
2022/11/23 05:23:13;;;;;;;1.58;1.38;;;;;;;2.88;90.57;99495.97;5068197;28;20025;-79
2022/11/23 05:25:38;;;;;;;0.98;0.98;;;;;;;3.07;88.96;99510.69;5068085;28;20028;-78
2022/11/23 05:28:04;;;;;;;6.85;5.85;;;;;;;2.45;90.29;99438.38;5067958;28;20029;-76
2022/11/23 05:30:30;;;;;;;0.50;0.50;;;;;;;2.99;89.32;99504.63;5067961;28;20029;-68
2022/11/23 05:33:02;;;;;;;0.50;0.50;;;;;;;2.84;90.00;99510.50;5068135;28;20032;-77
2022/11/23 05:35:28;;;;;;;0.50;0.50;;;;;;;2.81;90.68;99505.34;5067779;28;20048;-78
2022/11/23 05:37:54;;;;;;;0.50;0.50;;;;;;;2.82;91.02;99517.31;5068028;28;20029;-75
2022/11/23 05:40:19;;;;;;;0.60;0.60;;;;;;;2.80;90.83;99501.91;5067939;28;20084;-75
2022/11/23 05:42:45;;;;;;;1.45;1.35;;;;;;;2.97;90.84;99509.75;5066687;28;20112;-79
2022/11/23 05:45:10;;;;;;;0.60;0.60;;;;;;;2.99;90.08;99511.50;5066463;28;20472;-77
2022/11/23 05:47:36;;;;;;;1.15;1.15;;;;;;;2.93;90.34;99512.28;5066117;28;20024;-77
2022/11/23 05:50:01;;;;;;;0.90;0.90;;;;;;;2.88;90.63;99509.69;5068056;28;20388;-81
2022/11/23 05:52:26;;;;;;;0.60;0.60;;;;;;;2.84;91.19;99501.09;5067940;28;20025;-77
2022/11/23 05:54:52;;;;;;;0.50;0.50;;;;;;;3.10;89.89;99517.53;5067661;28;20029;-78
2022/11/23 05:57:17;;;;;;;0.50;0.50;;;;;;;3.03;90.34;99496.13;5067672;28;20033;-75
2022/11/23 05:59:43;;;;;;;5.82;5.45;;;;;;;2.97;90.43;99494.34;5067470;28;20021;-76
2022/11/23 06:02:08;;;;;;;0.75;0.75;;;;;;;3.34;89.16;99506.59;5067899;28;20032;-80
2022/11/23 06:04:33;;;;;;;0.50;0.50;;;;;;;3.13;89.64;99509.03;5069096;28;20025;-79
2022/11/23 06:06:59;;;;;;;0.90;0.90;;;;;;;3.29;89.08;99517.69;5067806;28;20028;-80
2022/11/23 06:09:26;;;;;;;3.35;3.13;;;;;;;3.09;90.31;99520.97;5067425;28;20024;-77
2022/11/23 06:11:52;;;;;;;0.60;0.60;;;;;;;3.24;89.60;99519.34;5067136;28;20053;-77
2022/11/23 06:14:17;;;;;;;0.50;0.50;;;;;;;3.25;89.78;99533.91;5067320;28;20400;-77
2022/11/23 06:16:43;;;;;;;1.52;1.15;;;;;;;3.27;89.27;99522.81;5066919;28;20044;-77
2022/11/23 06:19:08;;;;;;;0.50;0.50;;;;;;;3.20;90.03;99532.16;5065818;28;20033;-77
2022/11/23 06:21:33;;;;;;;0.50;0.50;;;;;;;3.41;88.25;99525.47;5065569;28;20075;-78
2022/11/23 06:23:59;;;;;;;1.95;1.85;;;;;;;3.18;89.79;99533.84;5066789;28;20029;-71
2022/11/23 06:26:24;;;;;;;0.50;0.50;;;;;;;3.36;89.08;99534.84;5066829;28;20027;-73
2022/11/23 06:28:50;;;;;;;0.50;0.50;;;;;;;3.27;89.45;99532.22;5066872;28;20025;-71
2022/11/23 06:31:16;;;;;;;0.50;0.50;;;;;;;3.26;89.43;99527.94;5066635;28;20025;-73
2022/11/23 06:33:41;;;;;;;1.25;1.15;;;;;;;3.22;90.11;99539.88;5066681;28;20136;-78
2022/11/23 06:36:08;;;;;;;0.50;0.50;;;;;;;3.34;89.07;99533.97;5066873;28;20088;-74
2022/11/23 06:38:34;;;;;;;0.50;0.50;;;;;;;3.22;89.77;99540.75;5066744;28;20085;-76
2022/11/23 06:40:59;;;;;;;3.85;3.60;;;;;;;3.27;89.79;99532.22;5066733;28;20021;-76
2022/11/23 06:43:26;;;;;;;1.10;1.05;;;;;;;3.45;88.83;99545.16;5066904;28;20085;-75
2022/11/23 06:45:52;;;;;;;1.42;1.35;;;;;;;3.34;88.81;99532.25;5066773;28;20587;-77
2022/11/23 06:48:17;;;;;;;1.15;1.10;;;;;;;3.43;88.43;99541.75;5066528;28;20033;-74
2022/11/23 06:50:43;;;;;;;5.18;2.75;;;;;;;3.29;89.41;99545.91;5048169;28;20079;-75
2022/11/23 06:53:11;;;;;;;0.50;0.50;;;;;;;3.25;89.91;99550.16;5066395;28;20032;-76
2022/11/23 06:55:36;;;;;;;0.60;0.60;;;;;;;3.24;90.56;99556.16;5065235;28;20033;-76
2022/11/23 06:58:02;;;;;;;0.55;0.55;;;;;;;3.51;88.49;99541.78;5066858;28;20056;-76
2022/11/23 07:00:27;;;;;;;0.80;0.80;;;;;;;3.45;88.03;99545.16;5066567;28;20407;-75
2022/11/23 07:02:54;;;;;;;0.77;0.77;;;;;;;3.41;87.83;99553.69;5066400;28;20021;-75
2022/11/23 07:05:20;;;;;;;0.60;0.60;;;;;;;3.21;88.73;99556.97;5066426;28;20025;-75
2022/11/23 07:07:45;;;;;;;0.50;0.50;;;;;;;3.14;89.67;99557.78;5066382;28;20017;-76
2022/11/23 07:10:12;;;;;;;0.50;0.50;;;;;;;3.41;88.15;99563.97;5066357;28;20056;-75
2022/11/23 07:12:37;;;;;;;0.50;0.50;;;;;;;3.34;88.29;99557.03;5066403;28;20029;-76
2022/11/23 07:15:04;;;;;;;0.60;0.60;;;;;;;3.32;87.83;99548.50;5064611;28;20048;-77
2022/11/23 07:17:29;;;;;;;0.60;0.60;;;;;;;3.15;89.18;99556.91;5066175;28;20056;-74
2022/11/23 07:19:55;;;;;;;0.60;0.60;;;;;;;3.21;89.28;99556.97;5064213;28;20045;-74
2022/11/23 07:22:20;;;;;;;4.68;3.25;;;;;;;3.17;89.45;99555.22;5065923;28;20097;-76
2022/11/23 07:24:45;;;;;;;0.50;0.50;;;;;;;3.46;87.23;99552.03;5065911;28;20028;-77
2022/11/23 07:27:11;;;;;;;0.50;0.50;;;;;;;3.39;87.22;99554.50;5064297;28;20514;-76
2022/11/23 07:29:36;;;;;;;0.55;0.55;;;;;;;3.38;87.66;99552.81;5065661;28;20032;-72
2022/11/23 07:32:02;;;;;;;0.60;0.60;;;;;;;3.29;87.96;99556.19;5063928;28;20060;-74
2022/11/23 07:34:28;;;;;;;0.50;0.50;;;;;;;3.27;88.04;99563.88;5065919;28;20036;-75
2022/11/23 07:36:53;;;;;;;0.63;0.63;;;;;;;3.32;87.89;99572.44;5065420;28;20021;-75
2022/11/23 07:39:19;;;;;;;0.50;0.50;;;;;;;3.33;87.88;99560.47;5066071;28;20484;-75
2022/11/23 07:41:47;;;;;;;0.50;0.50;;;;;;;3.22;88.68;99568.09;5065920;28;20090;-76
2022/11/23 07:44:13;;;;;;;0.50;0.50;;;;;;;3.24;88.75;99565.53;5065521;28;20028;-76
2022/11/23 07:46:38;;;;;;;0.50;0.50;;;;;;;3.34;87.78;99557.03;5064035;28;20445;-76
2022/11/23 07:49:04;;;;;;;0.50;0.50;;;;;;;3.45;86.83;99572.56;5065471;28;20021;-76
2022/11/23 07:51:29;;;;;;;0.50;0.50;;;;;;;3.22;87.74;99561.25;5064047;28;20114;-75
2022/11/23 07:53:55;;;;;;;0.73;0.73;;;;;;;3.24;88.85;99560.41;5065416;28;20484;-75
2022/11/23 07:56:20;;;;;;;0.50;0.50;;;;;;;3.43;87.22;99557.16;5065332;28;20586;-75
2022/11/23 07:58:45;;;;;;;0.50;0.50;;;;;;;3.35;87.78;99577.59;5065174;28;20028;-75
2022/11/23 08:01:18;;;;;;;0.50;0.50;;;;;;;3.25;88.59;99568.13;5065093;28;20025;-76
2022/11/23 08:03:44;;;;;;;0.50;0.50;;;;;;;3.18;89.07;99564.63;5065335;28;20051;-75
2022/11/23 08:06:11;;;;;;;0.50;0.50;;;;;;;3.27;88.80;99561.28;5063738;28;20056;-76
2022/11/23 08:08:37;;;;;;;0.50;0.50;;;;;;;3.54;86.86;99561.47;5065133;28;20027;-74
2022/11/23 08:11:08;;;;;;;0.47;0.47;;;;;;;3.65;85.13;99564.09;5063688;28;20492;-75
2022/11/23 08:13:33;;;;;;;1.08;1.08;;;;;;;3.50;85.79;99563.16;5064984;28;20032;-75
2022/11/23 08:15:59;;;;;;;1.33;1.27;;;;;;;3.22;87.23;99574.09;5063369;28;20025;-77
2022/11/23 08:18:25;;;;;;;0.50;0.50;;;;;;;3.43;87.06;99561.41;5065127;28;20029;-75
2022/11/23 08:20:51;;;;;;;1.35;1.35;;;;;;;3.31;87.25;99577.56;5064780;28;20052;-76
2022/11/23 08:23:17;;;;;;;0.50;0.50;;;;;;;3.28;87.38;99577.53;5065204;28;20031;-75
2022/11/23 08:25:42;;;;;;;0.60;0.60;;;;;;;3.16;88.11;99568.91;5064936;28;20087;-76
2022/11/23 08:28:08;;;;;;;0.50;0.50;;;;;;;3.34;87.05;99570.75;5063357;28;20032;-75
2022/11/23 08:30:34;;;;;;;0.75;0.75;;;;;;;3.49;85.22;99561.44;5064863;28;20025;-76
2022/11/23 08:33:05;;;;;;;0.50;0.50;;;;;;;3.34;86.36;99563.03;5064753;28;20044;-74
2022/11/23 08:35:33;;;;;;;0.57;0.57;;;;;;;3.19;87.20;99568.94;5064777;28;20024;-74
2022/11/23 08:37:58;;;;;;;0.60;0.60;;;;;;;3.21;87.19;99563.81;5063394;28;20021;-76
2022/11/23 08:40:23;;;;;;;2.38;1.05;;;;;;;3.31;87.18;99560.47;5063314;28;20036;-75
2022/11/23 08:42:49;;;;;;;0.55;0.55;;;;;;;3.27;86.56;99565.56;5064660;28;20028;-74
2022/11/23 08:45:14;;;;;;;0.60;0.60;;;;;;;3.36;86.32;99565.63;5063209;28;20078;-75
2022/11/23 08:47:39;;;;;;;0.60;0.60;;;;;;;3.32;86.32;99569.03;5065102;28;20468;-74
2022/11/23 08:50:05;;;;;;;0.50;0.50;;;;;;;3.07;87.76;99558.53;5068877;28;20116;-75
2022/11/23 08:52:30;;;;;;;1.30;1.30;;;;;;;3.15;87.90;99549.22;5068672;28;20032;-75
2022/11/23 08:54:56;;;;;;;0.50;0.50;;;;;;;3.20;87.74;99559.50;5068761;28;20059;-74
2022/11/23 08:57:21;;;;;;;2.05;1.77;;;;;;;3.14;87.78;99549.19;5068565;28;20092;-73
2022/11/23 08:59:46;;;;;;;0.40;0.40;;;;;;;3.34;86.66;99582.69;5067399;28;20036;-75
2022/11/23 09:02:13;;;;;;;0.50;0.50;;;;;;;3.13;87.24;99548.34;5068665;28;20511;-74
2022/11/23 09:04:39;;;;;;;0.60;0.60;;;;;;;3.18;87.47;99564.63;5067243;28;20048;-74
2022/11/23 09:07:05;;;;;;;0.50;0.50;;;;;;;3.20;87.47;99555.25;5068469;28;20025;-77
2022/11/23 09:09:30;;;;;;;0.50;0.50;;;;;;;3.38;86.00;99551.09;5068397;28;20032;-74
2022/11/23 09:11:56;;;;;;;0.50;0.50;;;;;;;3.27;86.59;99557.88;5068265;28;20025;-75
2022/11/23 09:14:22;;;;;;;0.50;0.50;;;;;;;3.13;87.64;99560.31;5068356;28;20025;-75
2022/11/23 09:16:47;;;;;;;0.50;0.50;;;;;;;3.07;88.46;99563.69;5067050;28;20054;-75
2022/11/23 09:19:13;;;;;;;0.50;0.50;;;;;;;3.08;88.86;99562.84;5068909;28;20056;-76
2022/11/23 09:21:39;;;;;;;0.60;0.60;;;;;;;3.15;88.42;99551.78;5069026;28;20097;-76
2022/11/23 09:24:04;;;;;;;0.50;0.50;;;;;;;3.12;88.54;99559.44;5068628;28;20500;-75
2022/11/23 09:26:32;;;;;;;0.50;0.50;;;;;;;3.55;85.26;99561.50;5066657;28;20021;-75
2022/11/23 09:28:58;;;;;;;0.50;0.50;;;;;;;3.29;86.27;99557.00;5068454;28;20032;-74
2022/11/23 09:31:25;;;;;;;0.50;0.50;;;;;;;3.19;87.78;99556.09;5067791;28;20404;-75
2022/11/23 09:33:52;;;;;;;0.60;0.60;;;;;;;3.40;87.01;99551.13;5066917;28;20448;-74
2022/11/23 09:36:17;;;;;;;0.55;0.55;;;;;;;3.46;85.58;99566.56;5067954;28;20373;-74
2022/11/23 09:38:43;;;;;;;0.60;0.60;;;;;;;3.29;86.96;99574.13;5067908;28;20085;-75
2022/11/23 09:41:20;;;;;;;0.50;0.50;;;;;;;3.28;87.11;99560.44;5068051;28;20021;-74
2022/11/23 09:44:03;;;;;;;0.50;0.50;;;;;;;3.26;87.71;99567.25;5066594;28;20020;-76
2022/11/23 09:46:38;;;;;;;0.43;0.43;;;;;;;3.44;86.33;99566.53;5049451;28;20079;-75
2022/11/23 09:49:12;;;;;;;0.50;0.50;;;;;;;3.33;86.85;99576.72;5067915;28;20112;-75
2022/11/23 09:51:39;;;;;;;0.50;0.50;;;;;;;3.26;85.78;99543.31;5066163;28;20025;-74
2022/11/23 09:54:29;;;;;;;0.47;0.47;;;;;;;3.40;86.71;99564.81;5066042;28;20083;-73
2022/11/23 09:56:56;;;;;;;0.77;0.77;;;;;;;3.42;86.26;99580.22;5065447;28;20060;-74
2022/11/23 09:59:38;;;;;;;0.50;0.50;;;;;;;3.52;85.06;99576.88;5067442;28;20055;-75
2022/11/23 10:02:04;;;;;;;0.60;0.60;;;;;;;3.33;86.07;99575.88;5067375;28;20107;-75
2022/11/23 10:04:33;;;;;;;0.50;0.50;;;;;;;3.58;84.94;99558.06;5067645;28;20032;-74
2022/11/23 10:07:09;;;;;;;0.50;0.50;;;;;;;3.42;85.21;99570.81;5067353;28;20025;-75
2022/11/23 10:10:03;;;;;;;1.67;1.63;;;;;;;3.60;84.68;99558.94;5067621;28;20029;-75
2022/11/23 10:12:52;;;;;;;0.57;0.57;;;;;;;3.45;85.00;99570.81;5067165;28;20029;-75
2022/11/23 10:15:27;;;;;;;0.50;0.50;;;;;;;3.50;84.62;99575.97;5067142;28;20047;-75
2022/11/23 10:18:11;;;;;;;0.50;0.50;;;;;;;3.54;84.77;99556.34;5067272;28;20130;-74
2022/11/23 10:21:02;;;;;;;0.90;0.90;;;;;;;3.43;85.29;99559.72;5065601;28;20079;-75
2022/11/23 10:23:38;;;;;;;0.50;0.50;;;;;;;3.70;83.76;99575.28;5067281;28;20043;-75
2022/11/23 10:26:07;;;;;;;0.60;0.60;;;;;;;3.56;84.21;99560.63;5065768;28;20029;-74
2022/11/23 10:28:33;;;;;;;0.52;0.52;;;;;;;3.70;83.50;99554.72;5067087;28;20028;-76
2022/11/23 10:31:15;;;;;;;1.75;1.65;;;;;;;3.56;83.16;99558.06;5066955;28;20029;-76
2022/11/23 10:33:59;;;;;;;0.50;0.50;;;;;;;3.58;83.56;99576.91;5067246;28;20389;-76
2022/11/23 10:36:24;;;;;;;0.50;0.50;;;;;;;3.55;84.02;99576.00;5066861;28;20024;-75
2022/11/23 10:38:55;;;;;;;0.55;0.55;;;;;;;3.74;83.43;99565.88;5066949;28;20104;-74
2022/11/23 10:41:20;;;;;;;1.70;1.60;;;;;;;3.49;84.54;99579.41;5067066;28;20041;-75
2022/11/23 10:43:55;;;;;;;0.50;0.50;;;;;;;3.50;84.49;99558.03;5067040;28;20031;-76
2022/11/23 10:46:36;;;;;;;0.60;0.60;;;;;;;3.74;83.08;99566.72;5066451;28;20084;-76
2022/11/23 10:49:19;;;;;;;0.50;0.50;;;;;;;3.62;83.74;99567.53;5066783;28;20025;-75
2022/11/23 10:52:24;;;;;;;0.60;0.60;;;;;;;3.52;84.26;99565.72;5065608;28;20074;-76
2022/11/23 10:54:54;;;;;;;0.60;0.60;;;;;;;3.57;84.25;99570.06;5065444;28;20029;-73
2022/11/23 10:57:24;;;;;;;0.60;0.60;;;;;;;3.58;83.99;99568.34;5066750;28;20032;-76
2022/11/23 11:00:16;;;;;;;0.50;0.50;;;;;;;3.53;84.76;99552.91;5066964;28;20029;-74
2022/11/23 11:02:56;;;;;;;0.40;0.40;;;;;;;3.67;83.53;99576.13;5065152;28;20024;-72
2022/11/23 11:05:24;;;;;;;0.50;0.50;;;;;;;3.66;83.46;99563.28;5066260;28;20024;-74
2022/11/23 11:07:50;;;;;;;0.60;0.60;;;;;;;3.62;83.83;99567.53;5066345;28;20048;-75
2022/11/23 11:10:36;;;;;;;0.50;0.50;;;;;;;3.76;83.02;99557.34;5066098;28;20365;-74
2022/11/23 11:13:02;;;;;;;0.50;0.50;;;;;;;3.82;82.58;99570.22;5066347;28;20021;-73
2022/11/23 11:15:28;;;;;;;1.45;1.42;;;;;;;3.68;83.12;99576.97;5066054;28;20093;-73
2022/11/23 11:17:58;;;;;;;0.60;0.60;;;;;;;3.81;82.48;99576.19;5064489;28;20024;-72
2022/11/23 11:20:30;;;;;;;0.50;0.50;;;;;;;3.59;83.60;99573.47;5065513;28;20107;-71
2022/11/23 11:22:57;;;;;;;0.60;0.60;;;;;;;3.55;84.00;99576.00;5048321;28;20025;-74
2022/11/23 11:25:29;;;;;;;1.15;1.15;;;;;;;3.76;83.62;99543.63;5066145;28;20106;-73
2022/11/23 11:27:55;;;;;;;0.65;0.65;;;;;;;3.58;83.87;99558.94;5047954;28;20021;-75
2022/11/23 11:30:28;;;;;;;0.50;0.50;;;;;;;3.65;84.11;99567.53;5065606;28;20041;-74
2022/11/23 11:33:23;;;;;;;0.50;0.50;;;;;;;3.91;81.84;99558.28;5065830;28;20021;-75
2022/11/23 11:35:52;;;;;;;0.50;0.50;;;;;;;3.66;83.35;99565.84;5047807;28;20039;-74
2022/11/23 11:38:28;;;;;;;0.50;0.50;;;;;;;3.81;83.13;99572.75;5065851;28;20029;-74
2022/11/23 11:40:57;;;;;;;0.55;0.55;;;;;;;3.93;81.89;99562.56;5047710;28;20037;-74
2022/11/23 11:43:33;;;;;;;0.50;0.50;;;;;;;3.64;83.53;99558.13;5065727;28;20029;-74
2022/11/23 11:46:10;;;;;;;0.50;0.50;;;;;;;3.79;82.66;99570.19;5065604;28;20029;-75